Time;durP1;ratioP1;P1;durP2;ratioP2;P2;SDS_P1;SDS_P2;PMS_P1;PMS_P2;Temp;Humidity;BMP_temperature;BMP_pressure;BME280_temperature;BME280_humidity;BME280_pressure;Samples;Min_cycle;Max_cycle;Signal;HPM_P1;HPM_P2
2023/05/31 00:00:53;;;;;;;2.63;2.50;;;;;;;;;;4994298;28;20440;-59
2023/05/31 00:03:19;;;;;;;3.13;2.97;;;;;;;;;;4993899;28;20802;-59
2023/05/31 00:05:45;;;;;;;4.30;3.20;;;;;;;;;;4994338;28;20884;-59
2023/05/31 00:08:11;;;;;;;2.77;2.57;;;;;;;;;;4994804;28;20444;-60
2023/05/31 00:10:37;;;;;;;2.53;2.43;;;;;;;;;;4993599;28;20415;-60
2023/05/31 00:13:03;;;;;;;2.60;2.50;;;;;;;;;;4992613;28;20443;-60
2023/05/31 00:15:29;;;;;;;5.10;2.90;;;;;;;;;;4993605;28;20463;-59
2023/05/31 00:17:55;;;;;;;2.03;1.93;;;;;;;;;;4992112;28;20791;-60
2023/05/31 00:20:21;;;;;;;4.77;2.93;;;;;;;;;;4992111;28;20509;-59
2023/05/31 00:22:47;;;;;;;3.30;3.17;;;;;;;;;;4992626;28;20438;-60
2023/05/31 00:25:13;;;;;;;4.30;3.47;;;;;;;;;;4991148;28;21009;-60
2023/05/31 00:27:39;;;;;;;5.30;2.73;;;;;;;;;;4992687;28;20438;-60
2023/05/31 00:30:07;;;;;;;4.73;3.43;;;;;;;;;;4992358;28;20422;-60
2023/05/31 00:32:36;;;;;;;6.53;3.57;;;;;;;;;;4992863;28;20502;-60
2023/05/31 00:35:05;;;;;;;3.67;3.00;;;;;;;;;;4993557;28;20410;-60
2023/05/31 00:37:36;;;;;;;5.07;3.07;;;;;;;;;;4993639;28;20442;-60
2023/05/31 00:40:03;;;;;;;3.70;3.07;;;;;;;;;;4993092;28;20450;-60
2023/05/31 00:42:29;;;;;;;4.77;2.77;;;;;;;;;;4993567;28;20454;-60
2023/05/31 00:44:55;;;;;;;5.40;2.77;;;;;;;;;;4992293;28;20525;-59
2023/05/31 00:47:21;;;;;;;10.67;3.23;;;;;;;;;;4993248;28;20437;-59
2023/05/31 00:49:49;;;;;;;3.00;2.63;;;;;;;;;;4993197;28;20520;-60
2023/05/31 00:52:15;;;;;;;2.70;2.50;;;;;;;;;;4992643;28;20472;-60
2023/05/31 00:54:44;;;;;;;3.43;2.97;;;;;;;;;;4993071;28;20416;-59
2023/05/31 00:57:12;;;;;;;4.80;2.90;;;;;;;;;;4993015;28;20492;-60
2023/05/31 00:59:38;;;;;;;2.77;2.67;;;;;;;;;;4993013;28;20409;-60
2023/05/31 01:02:05;;;;;;;2.63;2.43;;;;;;;;;;4992895;28;20493;-59
2023/05/31 01:04:31;;;;;;;2.90;2.70;;;;;;;;;;4992992;28;20406;-60
2023/05/31 01:07:00;;;;;;;7.33;2.93;;;;;;;;;;4992959;28;20887;-60
2023/05/31 01:09:30;;;;;;;4.90;2.80;;;;;;;;;;4992899;28;20501;-59
2023/05/31 01:11:56;;;;;;;7.60;3.03;;;;;;;;;;4992520;28;20411;-60
2023/05/31 01:14:34;;;;;;;4.30;2.80;;;;;;;;;;4993102;28;20398;-60
2023/05/31 01:17:10;;;;;;;3.40;3.10;;;;;;;;;;4992584;28;20967;-60
2023/05/31 01:19:49;;;;;;;4.23;2.83;;;;;;;;;;4993040;28;20484;-60
2023/05/31 01:22:34;;;;;;;13.13;2.70;;;;;;;;;;4993155;28;20422;-60
2023/05/31 01:25:07;;;;;;;2.87;2.47;;;;;;;;;;4992738;28;20421;-60
2023/05/31 01:27:33;;;;;;;4.67;3.03;;;;;;;;;;4992911;28;20445;-60
2023/05/31 01:30:01;;;;;;;4.10;2.80;;;;;;;;;;4993024;28;20409;-60
2023/05/31 01:32:27;;;;;;;3.00;2.37;;;;;;;;;;4992778;28;20484;-60
2023/05/31 01:34:56;;;;;;;2.83;2.60;;;;;;;;;;4992885;28;20492;-60
2023/05/31 01:37:24;;;;;;;12.40;3.03;;;;;;;;;;4992500;28;20483;-60
2023/05/31 01:39:52;;;;;;;2.87;2.60;;;;;;;;;;4992564;28;20422;-60
2023/05/31 01:42:20;;;;;;;7.40;3.03;;;;;;;;;;4993002;28;20488;-59
2023/05/31 01:44:50;;;;;;;2.77;2.57;;;;;;;;;;4991414;28;20432;-59
2023/05/31 01:47:20;;;;;;;3.00;2.80;;;;;;;;;;4991621;28;20413;-60
2023/05/31 01:49:46;;;;;;;11.33;2.90;;;;;;;;;;4992337;28;20968;-60
2023/05/31 01:52:14;;;;;;;6.57;2.93;;;;;;;;;;4991310;28;20488;-60
2023/05/31 01:54:40;;;;;;;4.73;2.90;;;;;;;;;;4992280;28;20420;-60
2023/05/31 01:57:07;;;;;;;3.00;2.70;;;;;;;;;;4992378;28;20476;-60
2023/05/31 01:59:36;;;;;;;2.90;2.67;;;;;;;;;;4992769;28;20456;-60
2023/05/31 02:02:02;;;;;;;4.07;3.17;;;;;;;;;;4992360;28;20433;-59
2023/05/31 02:04:28;;;;;;;3.70;2.80;;;;;;;;;;4992052;28;20409;-60
2023/05/31 02:06:54;;;;;;;7.13;3.10;;;;;;;;;;4994334;28;20849;-60
2023/05/31 02:09:23;;;;;;;2.90;2.67;;;;;;;;;;4994665;28;20432;-59
2023/05/31 02:11:49;;;;;;;9.73;2.60;;;;;;;;;;4995996;28;20483;-60
2023/05/31 02:14:15;;;;;;;6.00;2.67;;;;;;;;;;4994677;28;20897;-59
2023/05/31 02:16:41;;;;;;;3.10;2.90;;;;;;;;;;4995942;28;20473;-60
2023/05/31 02:19:08;;;;;;;3.97;2.87;;;;;;;;;;4995581;28;20413;-60
2023/05/31 02:21:36;;;;;;;4.63;2.90;;;;;;;;;;4995865;28;20962;-59
2023/05/31 02:24:02;;;;;;;5.27;2.83;;;;;;;;;;4995713;28;20421;-59
2023/05/31 02:26:28;;;;;;;3.27;2.80;;;;;;;;;;4995845;28;20436;-60
2023/05/31 02:28:54;;;;;;;3.00;2.73;;;;;;;;;;4995243;28;20483;-59
2023/05/31 02:31:23;;;;;;;6.67;2.93;;;;;;;;;;4995688;28;20871;-60
2023/05/31 02:33:49;;;;;;;3.63;2.73;;;;;;;;;;4995201;28;20444;-60
2023/05/31 02:36:14;;;;;;;3.07;2.83;;;;;;;;;;4995001;28;20466;-59
2023/05/31 02:38:40;;;;;;;3.63;3.20;;;;;;;;;;4995285;28;20435;-59
2023/05/31 02:41:06;;;;;;;3.17;2.70;;;;;;;;;;4994979;28;20416;-60
2023/05/31 02:43:32;;;;;;;2.57;2.30;;;;;;;;;;4995281;28;20488;-60
2023/05/31 02:46:01;;;;;;;3.30;2.87;;;;;;;;;;4995146;28;20471;-60
2023/05/31 02:48:27;;;;;;;4.93;2.70;;;;;;;;;;4995131;28;20488;-59
2023/05/31 02:50:53;;;;;;;5.70;2.80;;;;;;;;;;4994976;28;20417;-60
2023/05/31 02:53:19;;;;;;;2.67;2.47;;;;;;;;;;4994710;28;20527;-60
2023/05/31 02:55:46;;;;;;;3.50;3.23;;;;;;;;;;4995183;28;20472;-60
2023/05/31 02:58:15;;;;;;;4.83;3.40;;;;;;;;;;4994868;28;20440;-59
2023/05/31 03:00:41;;;;;;;3.07;2.43;;;;;;;;;;4995212;28;20428;-59
2023/05/31 03:03:07;;;;;;;2.67;2.57;;;;;;;;;;4994612;28;20447;-60
2023/05/31 03:05:34;;;;;;;5.37;2.70;;;;;;;;;;4993342;28;20528;-60
2023/05/31 03:08:00;;;;;;;3.53;2.83;;;;;;;;;;4994688;28;20501;-60
2023/05/31 03:10:26;;;;;;;6.43;3.40;;;;;;;;;;4994843;28;20417;-60
2023/05/31 03:12:53;;;;;;;14.53;3.00;;;;;;;;;;4994957;28;20922;-59
2023/05/31 03:15:21;;;;;;;3.07;2.80;;;;;;;;;;4992972;28;20569;-60
2023/05/31 03:17:50;;;;;;;3.47;2.40;;;;;;;;;;4993627;28;20439;-59
2023/05/31 03:20:18;;;;;;;5.90;2.73;;;;;;;;;;4995001;28;20759;-59
2023/05/31 03:22:44;;;;;;;2.80;2.50;;;;;;;;;;4994735;28;20430;-59
2023/05/31 03:25:10;;;;;;;4.73;2.83;;;;;;;;;;4994485;28;20941;-59
2023/05/31 03:27:36;;;;;;;4.80;3.37;;;;;;;;;;4994621;28;20439;-60
2023/05/31 03:30:06;;;;;;;3.70;2.40;;;;;;;;;;4994426;28;20411;-59
2023/05/31 03:32:32;;;;;;;2.80;2.57;;;;;;;;;;4994322;28;20462;-59
2023/05/31 03:35:00;;;;;;;5.10;3.20;;;;;;;;;;4994138;28;20448;-60
2023/05/31 03:37:26;;;;;;;6.10;2.90;;;;;;;;;;4994161;28;20410;-60
2023/05/31 03:39:52;;;;;;;4.00;3.20;;;;;;;;;;4993397;28;20421;-60
2023/05/31 03:42:18;;;;;;;2.63;2.50;;;;;;;;;;4993822;28;20461;-60
2023/05/31 03:44:44;;;;;;;3.03;2.73;;;;;;;;;;4993685;28;20427;-60
2023/05/31 03:47:11;;;;;;;5.80;2.70;;;;;;;;;;4993587;28;20415;-60
2023/05/31 03:49:36;;;;;;;6.20;3.00;;;;;;;;;;4993983;28;20472;-60
2023/05/31 03:52:03;;;;;;;14.53;3.10;;;;;;;;;;4994288;28;20413;-60
2023/05/31 03:54:30;;;;;;;5.07;3.10;;;;;;;;;;4993726;28;20804;-59
2023/05/31 03:56:56;;;;;;;7.73;2.83;;;;;;;;;;4993883;28;20570;-60
2023/05/31 03:59:22;;;;;;;3.00;2.87;;;;;;;;;;4993765;28;20436;-60
2023/05/31 04:01:50;;;;;;;2.60;2.47;;;;;;;;;;4993991;28;20816;-59
2023/05/31 04:04:16;;;;;;;5.90;2.73;;;;;;;;;;4993988;28;20510;-59
2023/05/31 04:06:42;;;;;;;4.80;2.80;;;;;;;;;;4993500;28;20527;-60
2023/05/31 04:09:08;;;;;;;7.10;2.43;;;;;;;;;;4993475;28;20494;-59
2023/05/31 04:11:34;;;;;;;3.20;3.00;;;;;;;;;;4993062;28;20503;-58
2023/05/31 04:14:02;;;;;;;2.73;2.43;;;;;;;;;;4993639;28;20951;-60
2023/05/31 04:16:28;;;;;;;2.40;2.30;;;;;;;;;;4992367;28;20852;-60
2023/05/31 04:18:54;;;;;;;3.83;3.00;;;;;;;;;;4993568;28;20452;-60
2023/05/31 04:21:20;;;;;;;4.20;3.10;;;;;;;;;;4993550;28;20435;-59
2023/05/31 04:23:46;;;;;;;2.37;2.27;;;;;;;;;;4993242;28;20461;-60
2023/05/31 04:26:16;;;;;;;5.87;3.17;;;;;;;;;;4992964;28;20426;-59
2023/05/31 04:28:42;;;;;;;5.87;2.60;;;;;;;;;;4991943;28;20913;-60
2023/05/31 04:31:08;;;;;;;9.60;2.87;;;;;;;;;;4992420;28;20928;-59
2023/05/31 04:33:35;;;;;;;3.50;3.17;;;;;;;;;;4991917;28;20446;-59
2023/05/31 04:36:04;;;;;;;7.93;2.83;;;;;;;;;;4992130;28;20503;-60
2023/05/31 04:38:32;;;;;;;7.83;3.00;;;;;;;;;;4993333;28;20467;-60
2023/05/31 04:41:00;;;;;;;2.80;2.60;;;;;;;;;;4991934;28;20437;-60
2023/05/31 04:43:29;;;;;;;8.80;2.77;;;;;;;;;;4993288;28;20925;-58
2023/05/31 04:45:55;;;;;;;6.30;2.90;;;;;;;;;;4992861;28;20431;-60
2023/05/31 04:48:21;;;;;;;4.47;2.50;;;;;;;;;;4993157;28;20457;-60
2023/05/31 04:50:48;;;;;;;5.03;2.90;;;;;;;;;;4993028;28;20430;-59
2023/05/31 04:53:14;;;;;;;4.10;2.50;;;;;;;;;;4993008;28;20444;-59
2023/05/31 04:55:40;;;;;;;4.33;2.80;;;;;;;;;;4991832;28;20472;-59
2023/05/31 04:58:08;;;;;;;3.03;2.73;;;;;;;;;;4992969;28;20452;-59
2023/05/31 05:00:34;;;;;;;3.33;2.73;;;;;;;;;;4993367;28;20426;-59
2023/05/31 05:03:00;;;;;;;4.03;2.70;;;;;;;;;;4992613;28;20899;-58
2023/05/31 05:05:26;;;;;;;4.20;2.93;;;;;;;;;;4992951;28;20455;-58
2023/05/31 05:07:53;;;;;;;3.07;2.83;;;;;;;;;;4991380;28;20455;-60
2023/05/31 05:10:21;;;;;;;4.20;2.80;;;;;;;;;;4993036;28;20433;-59
2023/05/31 05:12:47;;;;;;;5.63;2.73;;;;;;;;;;4992954;28;20493;-59
2023/05/31 05:15:15;;;;;;;3.70;2.83;;;;;;;;;;4992776;28;20447;-59
2023/05/31 05:17:45;;;;;;;3.60;2.97;;;;;;;;;;4993081;28;20960;-58
2023/05/31 05:20:11;;;;;;;6.57;2.50;;;;;;;;;;4992867;28;20419;-59
2023/05/31 05:22:42;;;;;;;5.53;3.50;;;;;;;;;;4992956;28;20415;-59
2023/05/31 05:25:09;;;;;;;6.20;2.53;;;;;;;;;;4992649;28;20411;-60
2023/05/31 05:27:35;;;;;;;3.87;2.47;;;;;;;;;;4993059;28;20411;-59
2023/05/31 05:30:01;;;;;;;5.50;3.03;;;;;;;;;;4992729;28;20454;-59
2023/05/31 05:32:27;;;;;;;2.80;2.53;;;;;;;;;;4992426;28;20414;-58
2023/05/31 05:34:53;;;;;;;3.47;2.90;;;;;;;;;;4992534;28;20440;-59
2023/05/31 05:37:19;;;;;;;11.03;3.30;;;;;;;;;;4993343;28;20525;-58
2023/05/31 05:39:45;;;;;;;3.67;3.17;;;;;;;;;;4993406;28;20411;-59
2023/05/31 05:42:13;;;;;;;3.17;2.43;;;;;;;;;;4996857;28;20762;-58
2023/05/31 05:44:41;;;;;;;4.50;2.47;;;;;;;;;;4996961;28;20806;-58
2023/05/31 05:47:10;;;;;;;5.80;3.50;;;;;;;;;;4997411;28;20507;-58
2023/05/31 05:49:36;;;;;;;3.93;3.10;;;;;;;;;;4997284;28;20443;-58
2023/05/31 05:52:02;;;;;;;6.80;3.17;;;;;;;;;;4996893;28;20417;-58
2023/05/31 05:54:28;;;;;;;4.30;3.20;;;;;;;;;;4996422;28;20433;-58
2023/05/31 05:56:56;;;;;;;3.07;2.83;;;;;;;;;;4996179;28;20483;-58
2023/05/31 05:59:22;;;;;;;7.90;2.93;;;;;;;;;;4995994;28;20442;-57
2023/05/31 06:01:48;;;;;;;8.80;3.30;;;;;;;;;;4996271;28;20786;-58
2023/05/31 06:04:14;;;;;;;6.27;3.00;;;;;;;;;;4996179;28;20444;-58
2023/05/31 06:06:40;;;;;;;4.23;2.33;;;;;;;;;;4996423;28;20423;-58
2023/05/31 06:09:07;;;;;;;2.77;2.57;;;;;;;;;;4996050;28;20447;-58
2023/05/31 06:11:33;;;;;;;4.23;3.13;;;;;;;;;;4996149;28;20428;-58
2023/05/31 06:13:59;;;;;;;5.07;2.80;;;;;;;;;;4995926;28;20440;-59
2023/05/31 06:16:25;;;;;;;2.57;2.37;;;;;;;;;;4995856;28;20463;-58
2023/05/31 06:18:51;;;;;;;9.50;3.17;;;;;;;;;;4995731;28;20421;-59
2023/05/31 06:21:19;;;;;;;5.40;2.80;;;;;;;;;;4996159;28;20408;-57
2023/05/31 06:23:45;;;;;;;5.03;3.17;;;;;;;;;;4995623;28;20425;-58
2023/05/31 06:26:11;;;;;;;11.83;4.07;;;;;;;;;;4995527;28;20428;-64
2023/05/31 06:28:37;;;;;;;4.83;3.27;;;;;;;;;;4995616;28;20448;-59
2023/05/31 06:31:08;;;;;;;3.80;3.37;;;;;;;;;;4995442;28;20422;-61
2023/05/31 06:33:36;;;;;;;3.33;3.03;;;;;;;;;;4995751;28;20416;-61
2023/05/31 06:36:03;;;;;;;2.47;2.37;;;;;;;;;;4995304;28;20469;-61
2023/05/31 06:38:29;;;;;;;4.40;2.70;;;;;;;;;;4995672;28;20433;-60
2023/05/31 06:40:55;;;;;;;5.43;2.53;;;;;;;;;;4995533;28;20501;-60
2023/05/31 06:43:23;;;;;;;5.97;2.93;;;;;;;;;;4995363;28;20423;-60
2023/05/31 06:45:51;;;;;;;7.83;2.77;;;;;;;;;;4995139;28;20451;-61
2023/05/31 06:48:17;;;;;;;2.87;2.77;;;;;;;;;;4995207;28;20445;-60
2023/05/31 06:50:45;;;;;;;7.47;2.97;;;;;;;;;;4995256;28;20437;-60
2023/05/31 06:53:12;;;;;;;5.87;2.50;;;;;;;;;;4994479;28;20507;-61
2023/05/31 06:55:38;;;;;;;6.67;3.10;;;;;;;;;;4995194;28;20466;-61
2023/05/31 06:58:05;;;;;;;7.10;3.30;;;;;;;;;;4995082;28;20436;-61
2023/05/31 07:00:31;;;;;;;14.50;2.97;;;;;;;;;;4994566;28;20434;-60
2023/05/31 07:02:57;;;;;;;3.50;2.67;;;;;;;;;;4994919;28;20407;-61
2023/05/31 07:05:23;;;;;;;3.10;2.97;;;;;;;;;;4994560;28;20465;-61
2023/05/31 07:07:49;;;;;;;7.97;2.70;;;;;;;;;;4994921;28;20442;-61
2023/05/31 07:10:15;;;;;;;13.47;3.27;;;;;;;;;;4994466;28;20457;-61
2023/05/31 07:12:44;;;;;;;2.97;2.80;;;;;;;;;;4994880;28;20941;-60
2023/05/31 07:15:10;;;;;;;3.50;3.10;;;;;;;;;;4994705;28;20462;-61
2023/05/31 07:17:36;;;;;;;3.10;2.90;;;;;;;;;;4994778;28;20411;-61
2023/05/31 07:20:04;;;;;;;3.23;3.00;;;;;;;;;;4994684;28;20548;-61
2023/05/31 07:22:33;;;;;;;3.30;2.77;;;;;;;;;;4994693;28;20402;-60
2023/05/31 07:24:59;;;;;;;3.10;2.90;;;;;;;;;;4994549;28;20443;-61
2023/05/31 07:27:25;;;;;;;6.63;2.90;;;;;;;;;;4994473;28;20415;-60
2023/05/31 07:29:51;;;;;;;2.77;2.40;;;;;;;;;;5011940;28;20995;-60
2023/05/31 07:32:16;;;;;;;8.10;2.80;;;;;;;;;;5013821;28;20507;-61
2023/05/31 07:34:47;;;;;;;6.50;2.53;;;;;;;;;;5013727;28;21004;-61
2023/05/31 07:37:13;;;;;;;3.47;3.17;;;;;;;;;;5013935;28;20830;-61
2023/05/31 07:39:39;;;;;;;13.10;3.27;;;;;;;;;;5013631;28;20410;-61
2023/05/31 07:42:05;;;;;;;3.90;2.90;;;;;;;;;;5013933;28;20484;-60
2023/05/31 07:44:34;;;;;;;6.13;2.53;;;;;;;;;;5013676;28;20418;-61
2023/05/31 07:47:00;;;;;;;3.17;2.70;;;;;;;;;;5012850;28;20438;-60
2023/05/31 07:49:26;;;;;;;9.00;2.90;;;;;;;;;;5013530;28;20419;-61
2023/05/31 07:51:54;;;;;;;4.93;3.30;;;;;;;;;;5013652;28;20419;-60
2023/05/31 07:54:20;;;;;;;6.00;3.40;;;;;;;;;;5013485;28;20472;-61
2023/05/31 07:56:46;;;;;;;6.47;3.60;;;;;;;;;;5013264;28;20879;-61
2023/05/31 07:59:12;;;;;;;3.50;2.80;;;;;;;;;;5013308;28;20423;-60
2023/05/31 08:01:40;;;;;;;7.83;2.93;;;;;;;;;;5012990;28;20818;-61
2023/05/31 08:04:06;;;;;;;2.90;2.70;;;;;;;;;;5012668;28;20425;-60
2023/05/31 08:06:32;;;;;;;6.83;3.53;;;;;;;;;;5013443;28;20421;-60
2023/05/31 08:08:59;;;;;;;5.90;3.53;;;;;;;;;;5012896;28;20443;-60
2023/05/31 08:11:25;;;;;;;3.10;2.70;;;;;;;;;;5013219;28;20448;-60
2023/05/31 08:13:52;;;;;;;7.90;3.10;;;;;;;;;;5012914;28;20483;-61
2023/05/31 08:16:18;;;;;;;5.67;3.47;;;;;;;;;;5013297;28;20843;-60
2023/05/31 08:18:46;;;;;;;3.00;2.80;;;;;;;;;;5013105;28;20499;-61
2023/05/31 08:21:12;;;;;;;2.70;2.50;;;;;;;;;;5013325;28;20444;-60
2023/05/31 08:23:41;;;;;;;5.73;3.23;;;;;;;;;;5013267;28;20910;-60
2023/05/31 08:26:07;;;;;;;9.20;3.57;;;;;;;;;;5013159;28;20449;-60
2023/05/31 08:28:35;;;;;;;2.77;2.53;;;;;;;;;;5012939;28;20413;-61
2023/05/31 08:31:02;;;;;;;3.77;3.40;;;;;;;;;;5012897;28;20527;-60
2023/05/31 08:33:31;;;;;;;4.00;2.73;;;;;;;;;;5012889;28;20436;-60
2023/05/31 08:36:03;;;;;;;5.37;3.40;;;;;;;;;;5013016;28;20468;-61
2023/05/31 08:38:34;;;;;;;4.80;3.23;;;;;;;;;;5013273;28;20829;-60
2023/05/31 08:41:04;;;;;;;9.70;3.13;;;;;;;;;;5012970;28;20776;-60
2023/05/31 08:43:31;;;;;;;7.43;2.97;;;;;;;;;;5012973;28;20496;-61
2023/05/31 08:46:01;;;;;;;3.73;2.50;;;;;;;;;;5012866;28;20469;-61
2023/05/31 08:48:29;;;;;;;3.33;3.03;;;;;;;;;;5012940;28;20421;-60
2023/05/31 08:50:58;;;;;;;4.57;3.17;;;;;;;;;;5012754;28;20782;-61
2023/05/31 08:53:28;;;;;;;3.73;3.43;;;;;;;;;;5012788;28;20438;-60
2023/05/31 08:55:54;;;;;;;6.40;3.30;;;;;;;;;;5012660;28;20468;-61
2023/05/31 08:58:20;;;;;;;3.60;3.40;;;;;;;;;;5012789;28;20470;-61
2023/05/31 09:00:46;;;;;;;8.83;3.13;;;;;;;;;;5012613;28;20806;-61
2023/05/31 09:03:15;;;;;;;4.00;3.27;;;;;;;;;;5011339;28;20932;-61
2023/05/31 09:05:41;;;;;;;7.57;3.60;;;;;;;;;;5012579;28;20581;-61
2023/05/31 09:08:10;;;;;;;6.93;3.10;;;;;;;;;;5012896;28;20453;-61
2023/05/31 09:10:37;;;;;;;3.67;3.37;;;;;;;;;;5012765;28;20448;-61
2023/05/31 09:13:03;;;;;;;10.33;2.83;;;;;;;;;;5012518;28;20439;-61
2023/05/31 09:15:29;;;;;;;6.37;2.90;;;;;;;;;;5014672;28;20466;-61
2023/05/31 09:17:56;;;;;;;5.17;2.90;;;;;;;;;;5016673;28;20418;-61
2023/05/31 09:20:32;;;;;;;3.17;3.03;;;;;;;;;;5016631;28;20423;-61
2023/05/31 09:23:03;;;;;;;7.13;3.60;;;;;;;;;;5016653;28;20479;-61
2023/05/31 09:25:42;;;;;;;5.43;2.97;;;;;;;;;;5016373;28;20810;-60
2023/05/31 09:28:08;;;;;;;5.30;3.03;;;;;;;;;;5016559;28;20407;-61
2023/05/31 09:30:34;;;;;;;4.30;3.13;;;;;;;;;;5016755;28;20444;-61
2023/05/31 09:33:00;;;;;;;3.77;3.00;;;;;;;;;;5016251;28;20506;-61
2023/05/31 09:35:27;;;;;;;5.43;3.20;;;;;;;;;;5014936;28;20567;-61
2023/05/31 09:37:53;;;;;;;3.23;2.93;;;;;;;;;;5016415;28;20437;-61
2023/05/31 09:40:31;;;;;;;4.87;3.07;;;;;;;;;;5014892;28;20450;-60
2023/05/31 09:42:57;;;;;;;6.20;3.23;;;;;;;;;;5016316;28;20398;-61
2023/05/31 09:45:24;;;;;;;5.20;3.17;;;;;;;;;;5016208;28;20414;-61
2023/05/31 09:47:53;;;;;;;3.33;3.03;;;;;;;;;;5014980;28;20425;-60
2023/05/31 09:50:23;;;;;;;3.40;3.10;;;;;;;;;;5016138;28;20433;-61
2023/05/31 09:52:51;;;;;;;12.20;3.57;;;;;;;;;;5016028;28;20415;-61
2023/05/31 09:55:20;;;;;;;12.57;2.73;;;;;;;;;;5015926;28;20416;-61
2023/05/31 09:57:46;;;;;;;4.47;3.60;;;;;;;;;;5015898;28;20494;-60
2023/05/31 10:00:14;;;;;;;5.87;3.17;;;;;;;;;;5016034;28;20422;-60
2023/05/31 10:02:42;;;;;;;3.50;2.80;;;;;;;;;;5016193;28;20438;-60
2023/05/31 10:05:11;;;;;;;6.00;3.23;;;;;;;;;;5014190;28;20447;-60
2023/05/31 10:07:42;;;;;;;7.43;3.10;;;;;;;;;;5016060;28;20811;-60
2023/05/31 10:10:09;;;;;;;9.43;2.87;;;;;;;;;;5015740;28;20507;-61
2023/05/31 10:12:37;;;;;;;7.23;2.83;;;;;;;;;;5015108;28;20448;-60
2023/05/31 10:15:06;;;;;;;5.43;2.73;;;;;;;;;;5014257;28;20422;-60
2023/05/31 10:17:36;;;;;;;3.40;3.10;;;;;;;;;;5015487;28;20469;-60
2023/05/31 10:20:04;;;;;;;5.77;3.20;;;;;;;;;;5015625;28;20430;-61
2023/05/31 10:22:32;;;;;;;10.47;3.40;;;;;;;;;;5015518;28;20409;-61
2023/05/31 10:25:03;;;;;;;3.80;3.03;;;;;;;;;;5015564;28;20474;-60
2023/05/31 10:27:31;;;;;;;3.73;3.30;;;;;;;;;;5014852;28;20940;-61
2023/05/31 10:30:04;;;;;;;3.63;3.40;;;;;;;;;;5015350;28;20431;-60
2023/05/31 10:32:33;;;;;;;2.97;2.87;;;;;;;;;;5015255;28;20518;-61
2023/05/31 10:34:59;;;;;;;4.10;3.80;;;;;;;;;;5015277;28;20415;-61
2023/05/31 10:37:25;;;;;;;3.97;3.67;;;;;;;;;;5015105;28;20475;-60
2023/05/31 10:40:11;;;;;;;3.60;3.40;;;;;;;;;;5014015;28;20424;-61
2023/05/31 10:42:53;;;;;;;3.17;2.93;;;;;;;;;;5015154;28;20410;-61
2023/05/31 10:45:24;;;;;;;3.60;3.40;;;;;;;;;;5015236;28;20880;-61
2023/05/31 10:47:50;;;;;;;2.73;2.63;;;;;;;;;;5015162;28;20440;-61
2023/05/31 10:50:20;;;;;;;3.90;3.60;;;;;;;;;;5013439;28;20416;-60
2023/05/31 10:52:52;;;;;;;3.93;3.07;;;;;;;;;;5014916;28;20446;-60
2023/05/31 10:55:19;;;;;;;23.00;16.10;;;;;;;;;;5014701;28;20439;-60
2023/05/31 10:57:50;;;;;;;8.20;6.77;;;;;;;;;;5014789;28;20435;-60
2023/05/31 11:00:19;;;;;;;8.23;6.00;;;;;;;;;;5014757;28;20826;-61
2023/05/31 11:02:47;;;;;;;6.10;5.47;;;;;;;;;;5014766;28;20432;-60
2023/05/31 11:05:20;;;;;;;5.07;3.70;;;;;;;;;;5014496;28;20439;-61
2023/05/31 11:07:47;;;;;;;16.50;12.17;;;;;;;;;;5014787;28;20811;-60
2023/05/31 11:10:24;;;;;;;7.13;3.30;;;;;;;;;;5014267;28;20481;-60
2023/05/31 11:12:50;;;;;;;5.40;3.30;;;;;;;;;;5014554;28;20428;-60
2023/05/31 11:15:18;;;;;;;3.47;3.17;;;;;;;;;;5014252;28;20444;-60
2023/05/31 11:17:52;;;;;;;8.87;3.63;;;;;;;;;;5014498;28;20423;-60
2023/05/31 11:20:18;;;;;;;3.07;2.93;;;;;;;;;;5014361;28;20416;-60
2023/05/31 11:22:47;;;;;;;2.73;2.63;;;;;;;;;;5014515;28;20872;-60
2023/05/31 11:25:22;;;;;;;3.90;3.70;;;;;;;;;;5014437;28;20401;-61
2023/05/31 11:27:49;;;;;;;5.77;3.00;;;;;;;;;;5014505;28;20439;-60
2023/05/31 11:30:16;;;;;;;4.43;3.50;;;;;;;;;;5014054;28;20459;-60
2023/05/31 11:32:42;;;;;;;3.97;3.47;;;;;;;;;;5014100;28;20534;-60
2023/05/31 11:35:14;;;;;;;5.07;3.30;;;;;;;;;;5013837;28;20409;-61
2023/05/31 11:37:41;;;;;;;3.27;3.07;;;;;;;;;;5013688;28;20467;-61
2023/05/31 11:40:09;;;;;;;3.13;3.00;;;;;;;;;;5013308;28;20831;-61
2023/05/31 11:42:45;;;;;;;4.33;3.20;;;;;;;;;;5014311;28;20429;-61
2023/05/31 11:45:13;;;;;;;11.50;3.47;;;;;;;;;;5014294;28;20455;-59
2023/05/31 11:47:45;;;;;;;5.03;3.07;;;;;;;;;;5015335;28;20460;-61
2023/05/31 11:50:17;;;;;;;4.00;3.40;;;;;;;;;;5016475;28;20409;-61
2023/05/31 11:52:44;;;;;;;8.97;3.67;;;;;;;;;;5014158;28;20432;-60
2023/05/31 11:55:10;;;;;;;5.43;3.33;;;;;;;;;;5013877;28;20420;-60
2023/05/31 11:57:44;;;;;;;3.53;3.33;;;;;;;;;;5013769;28;20564;-60
2023/05/31 12:00:20;;;;;;;8.23;3.20;;;;;;;;;;5012704;28;20456;-60
2023/05/31 12:02:51;;;;;;;3.37;3.10;;;;;;;;;;5014484;28;20432;-60
2023/05/31 12:05:17;;;;;;;4.13;2.93;;;;;;;;;;5014239;28;20405;-60
2023/05/31 12:07:46;;;;;;;2.90;2.80;;;;;;;;;;5013314;28;20409;-60
2023/05/31 12:10:12;;;;;;;7.97;3.03;;;;;;;;;;5014375;28;20453;-60
2023/05/31 12:12:41;;;;;;;7.27;3.37;;;;;;;;;;5014288;28;20453;-60
2023/05/31 12:15:11;;;;;;;3.00;2.90;;;;;;;;;;5014662;28;20416;-60
2023/05/31 12:17:37;;;;;;;3.43;3.13;;;;;;;;;;5013731;28;20480;-60
2023/05/31 12:20:12;;;;;;;3.63;3.43;;;;;;;;;;5013846;28;20432;-61
2023/05/31 12:22:38;;;;;;;3.47;3.17;;;;;;;;;;5014054;28;20553;-61
2023/05/31 12:25:06;;;;;;;3.97;3.20;;;;;;;;;;5013787;28;20429;-61
2023/05/31 12:27:34;;;;;;;2.83;2.67;;;;;;;;;;5013438;28;20424;-60
2023/05/31 12:30:00;;;;;;;3.23;2.70;;;;;;;;;;5014025;28;20784;-61
2023/05/31 12:32:28;;;;;;;2.90;2.57;;;;;;;;;;5014177;28;20401;-60
2023/05/31 12:35:07;;;;;;;7.50;3.13;;;;;;;;;;5013599;28;20797;-61
2023/05/31 12:37:34;;;;;;;5.23;3.20;;;;;;;;;;5012971;28;20511;-60
2023/05/31 12:40:22;;;;;;;5.43;3.30;;;;;;;;;;5013221;28;20417;-60
2023/05/31 12:42:50;;;;;;;5.93;2.90;;;;;;;;;;5013644;28;20436;-60
2023/05/31 12:45:18;;;;;;;3.07;2.90;;;;;;;;;;5013685;28;20420;-61
2023/05/31 12:47:44;;;;;;;2.50;2.30;;;;;;;;;;5013779;28;20479;-61
2023/05/31 12:50:11;;;;;;;2.57;2.47;;;;;;;;;;5013329;28;20405;-60
2023/05/31 12:52:40;;;;;;;3.47;2.63;;;;;;;;;;5012975;28;20450;-61
2023/05/31 12:55:07;;;;;;;9.30;3.00;;;;;;;;;;5013533;28;20405;-60
2023/05/31 12:57:34;;;;;;;3.70;2.77;;;;;;;;;;5013232;28;20464;-60
2023/05/31 13:00:11;;;;;;;2.77;2.57;;;;;;;;;;5012086;28;20436;-60
2023/05/31 13:02:37;;;;;;;2.67;2.60;;;;;;;;;;5013087;28;20424;-60
2023/05/31 13:05:05;;;;;;;3.20;2.80;;;;;;;;;;5012980;28;20435;-61
2023/05/31 13:07:31;;;;;;;2.87;2.77;;;;;;;;;;5012557;28;20424;-61
2023/05/31 13:09:57;;;;;;;2.80;2.60;;;;;;;;;;5013246;28;20428;-61
2023/05/31 13:12:23;;;;;;;5.20;2.67;;;;;;;;;;5013167;28;20436;-61
2023/05/31 13:14:51;;;;;;;4.50;3.10;;;;;;;;;;5012801;28;20425;-61
2023/05/31 13:17:17;;;;;;;4.53;2.80;;;;;;;;;;5013095;28;20464;-61
2023/05/31 13:19:46;;;;;;;2.67;2.47;;;;;;;;;;5013336;28;20428;-61
2023/05/31 13:22:14;;;;;;;3.63;3.20;;;;;;;;;;5012003;28;20429;-61
2023/05/31 13:24:41;;;;;;;10.33;3.00;;;;;;;;;;5013437;28;20512;-61
2023/05/31 13:27:07;;;;;;;84.67;50.23;;;;;;;;;;5012968;28;20421;-61
2023/05/31 13:29:33;;;;;;;13.57;10.40;;;;;;;;;;5013233;28;20402;-61
2023/05/31 13:31:59;;;;;;;5.07;4.33;;;;;;;;;;5013177;28;20506;-60
2023/05/31 13:34:25;;;;;;;11.33;9.00;;;;;;;;;;5013101;28;20413;-61
2023/05/31 13:36:51;;;;;;;3.33;3.10;;;;;;;;;;5013462;28;21004;-61
2023/05/31 13:39:17;;;;;;;9.67;7.97;;;;;;;;;;5013062;28;20500;-61
2023/05/31 13:41:46;;;;;;;5.70;2.93;;;;;;;;;;5012561;28;20503;-60
2023/05/31 13:44:15;;;;;;;3.10;3.00;;;;;;;;;;5013359;28;20441;-61
2023/05/31 13:46:41;;;;;;;3.00;2.80;;;;;;;;;;5012884;28;20958;-61
2023/05/31 13:49:10;;;;;;;3.80;2.93;;;;;;;;;;5013576;28;20432;-61
2023/05/31 13:51:36;;;;;;;5.83;2.40;;;;;;;;;;5013371;28;20440;-60
2023/05/31 13:54:02;;;;;;;55.47;32.20;;;;;;;;;;5013242;28;20880;-60
2023/05/31 13:56:28;;;;;;;16.17;11.57;;;;;;;;;;5012343;28;20459;-61
2023/05/31 13:58:54;;;;;;;6.63;3.13;;;;;;;;;;5012910;28;20468;-60
2023/05/31 14:01:20;;;;;;;11.13;2.67;;;;;;;;;;5012839;28;20403;-61
2023/05/31 14:03:51;;;;;;;2.70;2.50;;;;;;;;;;5016334;28;20432;-60
2023/05/31 14:06:17;;;;;;;8.10;3.00;;;;;;;;;;5016189;28;20420;-61
2023/05/31 14:08:45;;;;;;;3.20;2.60;;;;;;;;;;5015953;28;20451;-61
2023/05/31 14:11:16;;;;;;;2.70;2.60;;;;;;;;;;5016436;28;20479;-60
2023/05/31 14:13:42;;;;;;;3.37;3.07;;;;;;;;;;5016034;28;20466;-61
2023/05/31 14:16:10;;;;;;;6.67;3.30;;;;;;;;;;5015918;28;20452;-60
2023/05/31 14:18:36;;;;;;;2.93;2.73;;;;;;;;;;5016569;28;20462;-60
2023/05/31 14:21:02;;;;;;;5.30;2.80;;;;;;;;;;5016198;28;20416;-61
2023/05/31 14:23:28;;;;;;;4.40;3.50;;;;;;;;;;5016100;28;20474;-61
2023/05/31 14:25:54;;;;;;;2.70;2.50;;;;;;;;;;5015587;28;20429;-61
2023/05/31 14:28:21;;;;;;;4.10;2.90;;;;;;;;;;5003171;28;20437;-60
2023/05/31 14:30:47;;;;;;;4.63;2.90;;;;;;;;;;4995536;28;20457;-56
2023/05/31 14:33:13;;;;;;;4.87;3.00;;;;;;;;;;5004460;28;20582;-57
2023/05/31 14:35:38;;;;;;;1.90;1.90;;;;;;;;;;5006947;28;20995;-57
2023/05/31 14:38:04;;;;;;;8.57;2.33;;;;;;;;;;4995538;28;20410;-56
2023/05/31 14:40:31;;;;;;;2.83;2.63;;;;;;;;;;4995724;28;20386;-57
2023/05/31 14:42:57;;;;;;;3.23;2.90;;;;;;;;;;4994667;28;20789;-57